sensor_id;sensor_type;location;lat;lon;timestamp;temperature;humidity
8882;DHT22;4477;48.736;9.176;2022-08-06T00:00:16;18.10;99.90
8882;DHT22;4477;48.736;9.176;2022-08-06T00:02:42;18.10;99.90
8882;DHT22;4477;48.736;9.176;2022-08-06T00:05:10;18.10;99.90
8882;DHT22;4477;48.736;9.176;2022-08-06T00:07:39;18.10;99.90
8882;DHT22;4477;48.736;9.176;2022-08-06T00:10:07;18.00;99.90
8882;DHT22;4477;48.736;9.176;2022-08-06T00:12:35;18.00;99.90
8882;DHT22;4477;48.736;9.176;2022-08-06T00:15:05;18.10;99.90
8882;DHT22;4477;48.736;9.176;2022-08-06T00:17:32;18.00;99.90
8882;DHT22;4477;48.736;9.176;2022-08-06T00:19:59;18.00;99.90
8882;DHT22;4477;48.736;9.176;2022-08-06T00:22:27;18.00;99.90
8882;DHT22;4477;48.736;9.176;2022-08-06T00:24:56;18.00;99.90
8882;DHT22;4477;48.736;9.176;2022-08-06T00:27:24;18.10;99.90
8882;DHT22;4477;48.736;9.176;2022-08-06T00:29:51;18.00;99.90
8882;DHT22;4477;48.736;9.176;2022-08-06T00:32:18;18.00;99.90
8882;DHT22;4477;48.736;9.176;2022-08-06T00:34:45;17.90;99.90
8882;DHT22;4477;48.736;9.176;2022-08-06T00:37:12;17.90;99.90
8882;DHT22;4477;48.736;9.176;2022-08-06T00:39:39;17.90;99.90
8882;DHT22;4477;48.736;9.176;2022-08-06T00:42:08;17.90;99.90
8882;DHT22;4477;48.736;9.176;2022-08-06T00:44:35;17.90;99.90
8882;DHT22;4477;48.736;9.176;2022-08-06T00:47:02;17.90;99.90
8882;DHT22;4477;48.736;9.176;2022-08-06T00:49:29;17.90;99.90
8882;DHT22;4477;48.736;9.176;2022-08-06T00:51:56;17.90;99.90
8882;DHT22;4477;48.736;9.176;2022-08-06T00:54:23;17.90;99.90
8882;DHT22;4477;48.736;9.176;2022-08-06T00:56:50;17.80;99.90
8882;DHT22;4477;48.736;9.176;2022-08-06T00:59:18;17.90;99.70
8882;DHT22;4477;48.736;9.176;2022-08-06T01:01:45;17.80;98.80
8882;DHT22;4477;48.736;9.176;2022-08-06T01:04:12;17.80;99.20
8882;DHT22;4477;48.736;9.176;2022-08-06T01:06:39;17.80;99.20
8882;DHT22;4477;48.736;9.176;2022-08-06T01:09:06;17.80;99.20
8882;DHT22;4477;48.736;9.176;2022-08-06T01:11:33;17.70;98.60
8882;DHT22;4477;48.736;9.176;2022-08-06T01:13:59;17.70;98.90
8882;DHT22;4477;48.736;9.176;2022-08-06T01:16:35;17.70;99.00
8882;DHT22;4477;48.736;9.176;2022-08-06T01:19:21;17.70;98.40
8882;DHT22;4477;48.736;9.176;2022-08-06T01:22:04;17.60;97.60
8882;DHT22;4477;48.736;9.176;2022-08-06T01:24:50;17.60;98.00
8882;DHT22;4477;48.736;9.176;2022-08-06T01:27:38;17.60;98.40
8882;DHT22;4477;48.736;9.176;2022-08-06T01:30:10;17.60;97.60
8882;DHT22;4477;48.736;9.176;2022-08-06T01:32:42;17.50;98.10
8882;DHT22;4477;48.736;9.176;2022-08-06T01:35:16;17.50;97.50
8882;DHT22;4477;48.736;9.176;2022-08-06T01:37:48;17.50;97.60
8882;DHT22;4477;48.736;9.176;2022-08-06T01:40:19;17.50;97.70
8882;DHT22;4477;48.736;9.176;2022-08-06T01:42:49;17.40;96.90
8882;DHT22;4477;48.736;9.176;2022-08-06T01:45:19;17.40;98.20
8882;DHT22;4477;48.736;9.176;2022-08-06T01:47:51;17.40;98.10
8882;DHT22;4477;48.736;9.176;2022-08-06T01:50:22;17.40;98.30
8882;DHT22;4477;48.736;9.176;2022-08-06T01:52:51;17.40;97.90
8882;DHT22;4477;48.736;9.176;2022-08-06T01:55:20;17.40;97.40
8882;DHT22;4477;48.736;9.176;2022-08-06T01:57:52;17.40;97.60
8882;DHT22;4477;48.736;9.176;2022-08-06T02:00:19;17.40;98.20
8882;DHT22;4477;48.736;9.176;2022-08-06T02:02:48;17.40;97.30
8882;DHT22;4477;48.736;9.176;2022-08-06T02:05:19;17.30;96.10
8882;DHT22;4477;48.736;9.176;2022-08-06T02:07:49;17.30;96.70
8882;DHT22;4477;48.736;9.176;2022-08-06T02:10:21;17.30;96.50
8882;DHT22;4477;48.736;9.176;2022-08-06T02:12:50;17.20;96.70
8882;DHT22;4477;48.736;9.176;2022-08-06T02:15:20;17.10;96.50
8882;DHT22;4477;48.736;9.176;2022-08-06T02:17:51;17.10;97.00
8882;DHT22;4477;48.736;9.176;2022-08-06T02:20:33;17.10;97.60
8882;DHT22;4477;48.736;9.176;2022-08-06T02:23:01;17.00;97.20
8882;DHT22;4477;48.736;9.176;2022-08-06T02:25:31;17.00;97.00
8882;DHT22;4477;48.736;9.176;2022-08-06T02:28:01;17.00;97.80
8882;DHT22;4477;48.736;9.176;2022-08-06T02:30:32;17.00;97.20
8882;DHT22;4477;48.736;9.176;2022-08-06T02:32:59;17.00;96.80
8882;DHT22;4477;48.736;9.176;2022-08-06T02:35:27;17.00;97.50
8882;DHT22;4477;48.736;9.176;2022-08-06T02:38:00;17.00;97.30
8882;DHT22;4477;48.736;9.176;2022-08-06T02:40:34;16.90;97.80
8882;DHT22;4477;48.736;9.176;2022-08-06T02:43:06;17.00;97.60
8882;DHT22;4477;48.736;9.176;2022-08-06T02:45:39;16.90;97.40
8882;DHT22;4477;48.736;9.176;2022-08-06T02:48:12;16.90;97.10
8882;DHT22;4477;48.736;9.176;2022-08-06T02:50:43;16.90;97.90
8882;DHT22;4477;48.736;9.176;2022-08-06T02:53:16;16.90;97.50
8882;DHT22;4477;48.736;9.176;2022-08-06T02:55:46;16.80;97.60
8882;DHT22;4477;48.736;9.176;2022-08-06T02:58:19;16.80;98.00
8882;DHT22;4477;48.736;9.176;2022-08-06T03:00:48;16.70;97.70
8882;DHT22;4477;48.736;9.176;2022-08-06T03:03:19;16.70;97.80
8882;DHT22;4477;48.736;9.176;2022-08-06T03:05:47;16.70;97.90
8882;DHT22;4477;48.736;9.176;2022-08-06T03:08:20;16.70;97.70
8882;DHT22;4477;48.736;9.176;2022-08-06T03:10:49;16.60;98.30
8882;DHT22;4477;48.736;9.176;2022-08-06T03:13:20;16.60;98.90
8882;DHT22;4477;48.736;9.176;2022-08-06T03:15:49;16.60;99.10
8882;DHT22;4477;48.736;9.176;2022-08-06T03:18:17;16.60;99.30
8882;DHT22;4477;48.736;9.176;2022-08-06T03:20:44;16.60;99.40
8882;DHT22;4477;48.736;9.176;2022-08-06T03:23:12;16.60;99.40
8882;DHT22;4477;48.736;9.176;2022-08-06T03:25:40;16.50;98.50
8882;DHT22;4477;48.736;9.176;2022-08-06T03:28:11;16.50;99.10
8882;DHT22;4477;48.736;9.176;2022-08-06T03:30:40;16.50;99.30
8882;DHT22;4477;48.736;9.176;2022-08-06T03:33:10;16.40;98.80
8882;DHT22;4477;48.736;9.176;2022-08-06T03:35:39;16.40;99.50
8882;DHT22;4477;48.736;9.176;2022-08-06T03:38:08;16.40;99.30
8882;DHT22;4477;48.736;9.176;2022-08-06T03:40:36;16.40;99.90
8882;DHT22;4477;48.736;9.176;2022-08-06T03:43:04;16.40;99.80
8882;DHT22;4477;48.736;9.176;2022-08-06T03:45:36;16.40;99.90
8882;DHT22;4477;48.736;9.176;2022-08-06T03:48:07;16.40;99.90
8882;DHT22;4477;48.736;9.176;2022-08-06T03:50:39;16.30;99.90
8882;DHT22;4477;48.736;9.176;2022-08-06T03:53:17;16.30;99.90
8882;DHT22;4477;48.736;9.176;2022-08-06T03:55:46;16.30;99.90
8882;DHT22;4477;48.736;9.176;2022-08-06T03:58:14;16.30;99.90
8882;DHT22;4477;48.736;9.176;2022-08-06T04:00:50;16.20;99.90
8882;DHT22;4477;48.736;9.176;2022-08-06T04:03:19;16.10;99.90
8882;DHT22;4477;48.736;9.176;2022-08-06T04:05:47;16.10;99.90
8882;DHT22;4477;48.736;9.176;2022-08-06T04:08:15;16.10;99.90
8882;DHT22;4477;48.736;9.176;2022-08-06T04:10:47;16.20;99.90
8882;DHT22;4477;48.736;9.176;2022-08-06T04:13:16;16.10;99.90
8882;DHT22;4477;48.736;9.176;2022-08-06T04:15:44;16.10;99.90
8882;DHT22;4477;48.736;9.176;2022-08-06T04:18:14;16.20;99.90
8882;DHT22;4477;48.736;9.176;2022-08-06T04:20:46;16.20;99.90
8882;DHT22;4477;48.736;9.176;2022-08-06T04:23:13;16.20;99.90
8882;DHT22;4477;48.736;9.176;2022-08-06T04:25:44;16.20;99.90
8882;DHT22;4477;48.736;9.176;2022-08-06T04:28:14;16.20;99.90
8882;DHT22;4477;48.736;9.176;2022-08-06T04:30:42;16.20;99.90
8882;DHT22;4477;48.736;9.176;2022-08-06T04:33:12;16.20;99.90
8882;DHT22;4477;48.736;9.176;2022-08-06T04:35:41;16.20;99.90
8882;DHT22;4477;48.736;9.176;2022-08-06T04:38:10;16.30;99.90
8882;DHT22;4477;48.736;9.176;2022-08-06T04:40:38;16.30;99.90
8882;DHT22;4477;48.736;9.176;2022-08-06T04:43:05;16.30;99.90
8882;DHT22;4477;48.736;9.176;2022-08-06T04:45:34;16.30;99.90
8882;DHT22;4477;48.736;9.176;2022-08-06T04:48:04;16.40;99.90
8882;DHT22;4477;48.736;9.176;2022-08-06T04:50:33;16.50;99.90
8882;DHT22;4477;48.736;9.176;2022-08-06T04:53:09;16.40;99.90
8882;DHT22;4477;48.736;9.176;2022-08-06T04:55:37;16.40;99.90
8882;DHT22;4477;48.736;9.176;2022-08-06T04:58:06;16.30;99.90
8882;DHT22;4477;48.736;9.176;2022-08-06T05:00:38;16.30;99.90
8882;DHT22;4477;48.736;9.176;2022-08-06T05:03:05;16.30;99.90
8882;DHT22;4477;48.736;9.176;2022-08-06T05:05:37;16.30;99.90
8882;DHT22;4477;48.736;9.176;2022-08-06T05:08:06;16.30;99.90
8882;DHT22;4477;48.736;9.176;2022-08-06T05:10:39;16.40;99.90
8882;DHT22;4477;48.736;9.176;2022-08-06T05:13:10;16.50;99.90
8882;DHT22;4477;48.736;9.176;2022-08-06T05:15:41;16.50;99.90
8882;DHT22;4477;48.736;9.176;2022-08-06T05:18:10;16.50;99.90
8882;DHT22;4477;48.736;9.176;2022-08-06T05:20:41;16.40;99.90
8882;DHT22;4477;48.736;9.176;2022-08-06T05:23:12;16.40;99.90
8882;DHT22;4477;48.736;9.176;2022-08-06T05:25:41;16.40;99.90
8882;DHT22;4477;48.736;9.176;2022-08-06T05:28:08;16.40;99.90
8882;DHT22;4477;48.736;9.176;2022-08-06T05:30:42;16.40;99.90
8882;DHT22;4477;48.736;9.176;2022-08-06T05:33:09;16.40;99.90
8882;DHT22;4477;48.736;9.176;2022-08-06T05:35:36;16.40;99.90
8882;DHT22;4477;48.736;9.176;2022-08-06T05:38:03;16.40;99.90
8882;DHT22;4477;48.736;9.176;2022-08-06T05:40:30;16.40;99.90
8882;DHT22;4477;48.736;9.176;2022-08-06T05:43:02;16.40;99.90
8882;DHT22;4477;48.736;9.176;2022-08-06T05:45:29;16.40;99.90
8882;DHT22;4477;48.736;9.176;2022-08-06T05:47:58;16.40;99.90
8882;DHT22;4477;48.736;9.176;2022-08-06T05:50:28;16.40;99.90
8882;DHT22;4477;48.736;9.176;2022-08-06T05:53:00;16.40;99.90
8882;DHT22;4477;48.736;9.176;2022-08-06T05:55:37;16.60;99.90
8882;DHT22;4477;48.736;9.176;2022-08-06T05:58:10;16.90;99.90
8882;DHT22;4477;48.736;9.176;2022-08-06T06:00:39;17.20;99.90
8882;DHT22;4477;48.736;9.176;2022-08-06T06:03:11;17.30;99.90
8882;DHT22;4477;48.736;9.176;2022-08-06T06:05:39;17.40;99.90
8882;DHT22;4477;48.736;9.176;2022-08-06T06:08:07;17.40;99.90
8882;DHT22;4477;48.736;9.176;2022-08-06T06:10:35;17.50;99.90
8882;DHT22;4477;48.736;9.176;2022-08-06T06:13:03;17.60;99.90
8882;DHT22;4477;48.736;9.176;2022-08-06T06:15:37;17.70;99.90
8882;DHT22;4477;48.736;9.176;2022-08-06T06:18:10;17.60;99.90
8882;DHT22;4477;48.736;9.176;2022-08-06T06:20:49;17.70;99.90
8882;DHT22;4477;48.736;9.176;2022-08-06T06:23:20;17.90;99.90
8882;DHT22;4477;48.736;9.176;2022-08-06T06:25:58;18.00;99.90
8882;DHT22;4477;48.736;9.176;2022-08-06T06:28:31;18.30;99.50
8882;DHT22;4477;48.736;9.176;2022-08-06T06:31:06;18.40;98.90
8882;DHT22;4477;48.736;9.176;2022-08-06T06:33:41;18.60;98.70
8882;DHT22;4477;48.736;9.176;2022-08-06T06:36:16;18.50;98.00
8882;DHT22;4477;48.736;9.176;2022-08-06T06:38:51;18.50;98.60
8882;DHT22;4477;48.736;9.176;2022-08-06T06:41:26;18.60;98.40
8882;DHT22;4477;48.736;9.176;2022-08-06T06:44:00;18.80;98.10
8882;DHT22;4477;48.736;9.176;2022-08-06T06:46:36;18.90;98.20
8882;DHT22;4477;48.736;9.176;2022-08-06T06:49:09;18.80;97.60
8882;DHT22;4477;48.736;9.176;2022-08-06T06:51:41;18.80;97.30
8882;DHT22;4477;48.736;9.176;2022-08-06T06:54:15;18.80;98.00
8882;DHT22;4477;48.736;9.176;2022-08-06T06:56:46;18.80;97.80
8882;DHT22;4477;48.736;9.176;2022-08-06T06:59:15;18.90;97.90
8882;DHT22;4477;48.736;9.176;2022-08-06T07:01:47;19.00;96.50
8882;DHT22;4477;48.736;9.176;2022-08-06T07:04:16;18.90;96.80
8882;DHT22;4477;48.736;9.176;2022-08-06T07:06:45;19.00;97.40
8882;DHT22;4477;48.736;9.176;2022-08-06T07:09:16;19.30;96.70
8882;DHT22;4477;48.736;9.176;2022-08-06T07:11:44;19.60;96.20
8882;DHT22;4477;48.736;9.176;2022-08-06T07:14:12;19.80;95.30
8882;DHT22;4477;48.736;9.176;2022-08-06T07:16:41;20.00;94.80
8882;DHT22;4477;48.736;9.176;2022-08-06T07:19:11;20.20;95.30
8882;DHT22;4477;48.736;9.176;2022-08-06T07:21:40;20.70;93.90
8882;DHT22;4477;48.736;9.176;2022-08-06T07:24:08;20.70;93.90
8882;DHT22;4477;48.736;9.176;2022-08-06T07:26:35;20.70;93.10
8882;DHT22;4477;48.736;9.176;2022-08-06T07:29:03;20.50;93.10
8882;DHT22;4477;48.736;9.176;2022-08-06T07:31:31;20.40;93.10
8882;DHT22;4477;48.736;9.176;2022-08-06T07:34:00;20.20;94.00
8882;DHT22;4477;48.736;9.176;2022-08-06T07:36:31;20.50;94.30
8882;DHT22;4477;48.736;9.176;2022-08-06T07:39:03;20.80;92.70
8882;DHT22;4477;48.736;9.176;2022-08-06T07:41:32;21.20;92.60
8882;DHT22;4477;48.736;9.176;2022-08-06T07:44:01;21.40;90.90
8882;DHT22;4477;48.736;9.176;2022-08-06T07:46:34;21.20;91.10
8882;DHT22;4477;48.736;9.176;2022-08-06T07:49:04;21.20;91.00
8882;DHT22;4477;48.736;9.176;2022-08-06T07:51:38;21.40;90.70
8882;DHT22;4477;48.736;9.176;2022-08-06T07:54:07;21.60;90.50
8882;DHT22;4477;48.736;9.176;2022-08-06T07:56:35;21.80;90.10
8882;DHT22;4477;48.736;9.176;2022-08-06T07:59:04;22.00;88.20
8882;DHT22;4477;48.736;9.176;2022-08-06T08:01:32;22.40;89.50
8882;DHT22;4477;48.736;9.176;2022-08-06T08:03:59;22.80;88.70
8882;DHT22;4477;48.736;9.176;2022-08-06T08:06:45;22.90;82.30
8882;DHT22;4477;48.736;9.176;2022-08-06T08:09:15;23.00;81.40
8882;DHT22;4477;48.736;9.176;2022-08-06T08:11:45;23.30;84.70
8882;DHT22;4477;48.736;9.176;2022-08-06T08:14:13;23.50;81.10
8882;DHT22;4477;48.736;9.176;2022-08-06T08:16:40;23.40;79.50
8882;DHT22;4477;48.736;9.176;2022-08-06T08:19:24;23.80;81.70
8882;DHT22;4477;48.736;9.176;2022-08-06T08:21:54;24.40;78.70
8882;DHT22;4477;48.736;9.176;2022-08-06T08:24:23;24.50;77.40
8882;DHT22;4477;48.736;9.176;2022-08-06T08:26:50;24.50;75.00
8882;DHT22;4477;48.736;9.176;2022-08-06T08:29:17;24.60;77.10
8882;DHT22;4477;48.736;9.176;2022-08-06T08:31:44;24.90;76.20
8882;DHT22;4477;48.736;9.176;2022-08-06T08:34:11;24.30;75.40
8882;DHT22;4477;48.736;9.176;2022-08-06T08:36:38;24.40;77.40
8882;DHT22;4477;48.736;9.176;2022-08-06T08:39:06;24.10;73.50
8882;DHT22;4477;48.736;9.176;2022-08-06T08:41:37;23.60;75.40
8882;DHT22;4477;48.736;9.176;2022-08-06T08:44:07;23.00;77.90
8882;DHT22;4477;48.736;9.176;2022-08-06T08:46:38;22.30;78.90
8882;DHT22;4477;48.736;9.176;2022-08-06T08:49:06;21.70;80.80
8882;DHT22;4477;48.736;9.176;2022-08-06T08:51:37;21.20;82.60
8882;DHT22;4477;48.736;9.176;2022-08-06T08:54:08;21.10;86.90
8882;DHT22;4477;48.736;9.176;2022-08-06T08:56:36;21.00;85.30
8882;DHT22;4477;48.736;9.176;2022-08-06T08:59:04;21.10;85.40
8882;DHT22;4477;48.736;9.176;2022-08-06T09:01:33;21.20;85.60
8882;DHT22;4477;48.736;9.176;2022-08-06T09:04:02;21.40;83.40
8882;DHT22;4477;48.736;9.176;2022-08-06T09:06:30;21.50;82.60
8882;DHT22;4477;48.736;9.176;2022-08-06T09:08:58;21.60;80.80
8882;DHT22;4477;48.736;9.176;2022-08-06T09:11:30;21.30;81.30
8882;DHT22;4477;48.736;9.176;2022-08-06T09:13:59;21.00;80.80
8882;DHT22;4477;48.736;9.176;2022-08-06T09:16:26;20.90;81.50
8882;DHT22;4477;48.736;9.176;2022-08-06T09:18:54;21.00;84.00
8882;DHT22;4477;48.736;9.176;2022-08-06T09:21:21;21.20;84.60
8882;DHT22;4477;48.736;9.176;2022-08-06T09:23:48;21.30;83.60
8882;DHT22;4477;48.736;9.176;2022-08-06T09:26:15;21.60;85.80
8882;DHT22;4477;48.736;9.176;2022-08-06T09:28:44;22.20;80.90
8882;DHT22;4477;48.736;9.176;2022-08-06T09:31:12;22.10;78.90
8882;DHT22;4477;48.736;9.176;2022-08-06T09:33:41;22.10;79.30
8882;DHT22;4477;48.736;9.176;2022-08-06T09:36:10;22.10;78.50
8882;DHT22;4477;48.736;9.176;2022-08-06T09:38:47;21.70;77.80
8882;DHT22;4477;48.736;9.176;2022-08-06T09:41:16;22.10;79.70
8882;DHT22;4477;48.736;9.176;2022-08-06T09:43:46;22.50;81.50
8882;DHT22;4477;48.736;9.176;2022-08-06T09:46:14;23.30;77.60
8882;DHT22;4477;48.736;9.176;2022-08-06T09:48:56;24.20;74.90
8882;DHT22;4477;48.736;9.176;2022-08-06T09:51:24;24.10;71.60
8882;DHT22;4477;48.736;9.176;2022-08-06T09:53:52;24.00;71.50
8882;DHT22;4477;48.736;9.176;2022-08-06T09:56:19;24.10;72.80
8882;DHT22;4477;48.736;9.176;2022-08-06T09:58:48;24.30;75.30
8882;DHT22;4477;48.736;9.176;2022-08-06T10:01:17;24.60;71.60
8882;DHT22;4477;48.736;9.176;2022-08-06T10:03:44;25.20;71.80
8882;DHT22;4477;48.736;9.176;2022-08-06T10:06:12;25.70;68.80
8882;DHT22;4477;48.736;9.176;2022-08-06T10:08:40;25.20;66.90
8882;DHT22;4477;48.736;9.176;2022-08-06T10:11:07;24.40;66.20
8882;DHT22;4477;48.736;9.176;2022-08-06T10:13:35;23.80;67.90
8882;DHT22;4477;48.736;9.176;2022-08-06T10:16:17;23.40;69.10
8882;DHT22;4477;48.736;9.176;2022-08-06T10:18:46;23.40;73.40
8882;DHT22;4477;48.736;9.176;2022-08-06T10:21:14;23.40;70.50
8882;DHT22;4477;48.736;9.176;2022-08-06T10:23:44;23.90;73.30
8882;DHT22;4477;48.736;9.176;2022-08-06T10:26:14;24.40;72.00
8882;DHT22;4477;48.736;9.176;2022-08-06T10:28:44;25.60;73.40
8882;DHT22;4477;48.736;9.176;2022-08-06T10:31:14;26.80;58.10
8882;DHT22;4477;48.736;9.176;2022-08-06T10:33:48;26.90;63.80
8882;DHT22;4477;48.736;9.176;2022-08-06T10:36:19;27.50;61.70
8882;DHT22;4477;48.736;9.176;2022-08-06T10:38:52;27.50;59.40
8882;DHT22;4477;48.736;9.176;2022-08-06T10:41:21;26.80;58.70
8882;DHT22;4477;48.736;9.176;2022-08-06T10:43:48;25.90;61.00
8882;DHT22;4477;48.736;9.176;2022-08-06T10:46:17;25.20;62.00
8882;DHT22;4477;48.736;9.176;2022-08-06T10:48:45;24.70;65.20
8882;DHT22;4477;48.736;9.176;2022-08-06T10:51:13;24.40;66.10
8882;DHT22;4477;48.736;9.176;2022-08-06T10:53:42;24.10;65.80
8882;DHT22;4477;48.736;9.176;2022-08-06T10:56:12;24.10;67.70
8882;DHT22;4477;48.736;9.176;2022-08-06T10:58:41;24.10;67.50
8882;DHT22;4477;48.736;9.176;2022-08-06T11:01:09;24.20;64.50
8882;DHT22;4477;48.736;9.176;2022-08-06T11:06:57;25.80;62.70
8882;DHT22;4477;48.736;9.176;2022-08-06T11:09:40;25.90;61.40
8882;DHT22;4477;48.736;9.176;2022-08-06T11:12:17;25.90;63.40
8882;DHT22;4477;48.736;9.176;2022-08-06T11:14:50;25.50;60.50
8882;DHT22;4477;48.736;9.176;2022-08-06T11:17:17;25.60;65.80
8882;DHT22;4477;48.736;9.176;2022-08-06T11:19:47;25.40;59.20
8882;DHT22;4477;48.736;9.176;2022-08-06T11:22:32;26.00;65.20
8882;DHT22;4477;48.736;9.176;2022-08-06T11:25:00;27.40;61.30
8882;DHT22;4477;48.736;9.176;2022-08-06T11:27:47;28.60;55.80
8882;DHT22;4477;48.736;9.176;2022-08-06T11:30:14;29.10;58.50
8882;DHT22;4477;48.736;9.176;2022-08-06T11:32:45;29.00;55.00
8882;DHT22;4477;48.736;9.176;2022-08-06T11:35:42;28.40;56.60
8882;DHT22;4477;48.736;9.176;2022-08-06T11:38:11;28.50;56.80
8882;DHT22;4477;48.736;9.176;2022-08-06T11:40:55;28.60;54.10
8882;DHT22;4477;48.736;9.176;2022-08-06T11:43:47;28.40;54.70
8882;DHT22;4477;48.736;9.176;2022-08-06T11:46:21;27.90;56.70
8882;DHT22;4477;48.736;9.176;2022-08-06T11:49:12;28.20;56.10
8882;DHT22;4477;48.736;9.176;2022-08-06T11:51:41;29.10;54.90
8882;DHT22;4477;48.736;9.176;2022-08-06T11:54:13;30.20;51.80
8882;DHT22;4477;48.736;9.176;2022-08-06T11:57:17;30.90;52.00
8882;DHT22;4477;48.736;9.176;2022-08-06T11:59:48;31.40;50.90
8882;DHT22;4477;48.736;9.176;2022-08-06T12:02:55;31.20;49.70
8882;DHT22;4477;48.736;9.176;2022-08-06T12:05:39;31.10;49.60
8882;DHT22;4477;48.736;9.176;2022-08-06T12:08:19;29.90;49.40
8882;DHT22;4477;48.736;9.176;2022-08-06T12:11:21;28.00;50.40
8882;DHT22;4477;48.736;9.176;2022-08-06T12:13:49;26.80;56.10
8882;DHT22;4477;48.736;9.176;2022-08-06T12:16:34;26.20;58.90
8882;DHT22;4477;48.736;9.176;2022-08-06T12:19:02;25.70;57.60
8882;DHT22;4477;48.736;9.176;2022-08-06T12:21:30;26.10;59.50
8882;DHT22;4477;48.736;9.176;2022-08-06T12:23:58;26.60;58.40
8882;DHT22;4477;48.736;9.176;2022-08-06T12:26:30;28.00;58.40
8882;DHT22;4477;48.736;9.176;2022-08-06T12:29:03;28.80;57.20
8882;DHT22;4477;48.736;9.176;2022-08-06T12:31:32;29.50;52.20
8882;DHT22;4477;48.736;9.176;2022-08-06T12:33:59;29.20;51.40
8882;DHT22;4477;48.736;9.176;2022-08-06T12:36:28;29.20;52.80
8882;DHT22;4477;48.736;9.176;2022-08-06T12:38:58;28.60;52.30
8882;DHT22;4477;48.736;9.176;2022-08-06T12:41:40;27.60;53.60
8882;DHT22;4477;48.736;9.176;2022-08-06T12:44:11;26.90;54.40
8882;DHT22;4477;48.736;9.176;2022-08-06T12:46:39;26.50;56.50
8882;DHT22;4477;48.736;9.176;2022-08-06T12:49:06;26.20;57.90
8882;DHT22;4477;48.736;9.176;2022-08-06T12:51:33;26.60;56.60
8882;DHT22;4477;48.736;9.176;2022-08-06T12:54:04;26.90;56.50
8882;DHT22;4477;48.736;9.176;2022-08-06T12:56:36;26.80;56.00
8882;DHT22;4477;48.736;9.176;2022-08-06T12:59:06;26.70;55.80
8882;DHT22;4477;48.736;9.176;2022-08-06T13:01:35;26.10;56.30
8882;DHT22;4477;48.736;9.176;2022-08-06T13:04:06;25.60;56.60
8882;DHT22;4477;48.736;9.176;2022-08-06T13:06:35;25.50;57.40
8882;DHT22;4477;48.736;9.176;2022-08-06T13:09:04;25.40;58.50
8882;DHT22;4477;48.736;9.176;2022-08-06T13:11:33;25.40;60.90
8882;DHT22;4477;48.736;9.176;2022-08-06T13:14:11;25.40;57.00
8882;DHT22;4477;48.736;9.176;2022-08-06T13:16:40;26.40;64.50
8882;DHT22;4477;48.736;9.176;2022-08-06T13:19:09;28.30;56.50
8882;DHT22;4477;48.736;9.176;2022-08-06T13:21:37;29.00;51.90
8882;DHT22;4477;48.736;9.176;2022-08-06T13:24:07;29.70;51.90
8882;DHT22;4477;48.736;9.176;2022-08-06T13:26:47;30.70;50.00
8882;DHT22;4477;48.736;9.176;2022-08-06T13:29:15;32.10;52.80
8882;DHT22;4477;48.736;9.176;2022-08-06T13:31:44;32.50;46.50
8882;DHT22;4477;48.736;9.176;2022-08-06T13:34:13;32.40;46.00
8882;DHT22;4477;48.736;9.176;2022-08-06T13:36:42;32.20;46.10
8882;DHT22;4477;48.736;9.176;2022-08-06T13:39:25;32.30;45.50
8882;DHT22;4477;48.736;9.176;2022-08-06T13:42:04;31.10;45.80
8882;DHT22;4477;48.736;9.176;2022-08-06T13:44:33;30.90;48.10
8882;DHT22;4477;48.736;9.176;2022-08-06T13:47:00;31.00;46.40
8882;DHT22;4477;48.736;9.176;2022-08-06T13:49:27;31.20;43.40
8882;DHT22;4477;48.736;9.176;2022-08-06T13:51:54;31.70;49.30
8882;DHT22;4477;48.736;9.176;2022-08-06T13:54:22;32.50;44.00
8882;DHT22;4477;48.736;9.176;2022-08-06T13:56:52;32.60;45.50
8882;DHT22;4477;48.736;9.176;2022-08-06T13:59:21;32.20;42.10
8882;DHT22;4477;48.736;9.176;2022-08-06T14:01:49;31.10;47.00
8882;DHT22;4477;48.736;9.176;2022-08-06T14:04:18;31.80;46.00
8882;DHT22;4477;48.736;9.176;2022-08-06T14:06:48;32.40;45.90
8882;DHT22;4477;48.736;9.176;2022-08-06T14:09:16;33.50;45.60
8882;DHT22;4477;48.736;9.176;2022-08-06T14:11:44;33.80;41.10
8882;DHT22;4477;48.736;9.176;2022-08-06T14:14:12;32.40;41.70
8882;DHT22;4477;48.736;9.176;2022-08-06T14:16:39;30.50;44.60
8882;DHT22;4477;48.736;9.176;2022-08-06T14:19:06;29.40;46.60
8882;DHT22;4477;48.736;9.176;2022-08-06T14:21:32;29.00;50.10
8882;DHT22;4477;48.736;9.176;2022-08-06T14:23:59;30.20;49.60
8882;DHT22;4477;48.736;9.176;2022-08-06T14:26:26;31.20;47.40
8882;DHT22;4477;48.736;9.176;2022-08-06T14:28:53;31.80;43.70
8882;DHT22;4477;48.736;9.176;2022-08-06T14:31:22;31.00;43.00
8882;DHT22;4477;48.736;9.176;2022-08-06T14:33:48;30.20;47.80
8882;DHT22;4477;48.736;9.176;2022-08-06T14:36:15;30.60;48.50
8882;DHT22;4477;48.736;9.176;2022-08-06T14:38:42;30.90;46.70
8882;DHT22;4477;48.736;9.176;2022-08-06T14:41:11;30.40;46.90
8882;DHT22;4477;48.736;9.176;2022-08-06T14:43:55;29.50;46.80
8882;DHT22;4477;48.736;9.176;2022-08-06T14:46:41;29.30;49.80
8882;DHT22;4477;48.736;9.176;2022-08-06T14:49:08;29.50;47.70
8882;DHT22;4477;48.736;9.176;2022-08-06T14:51:35;29.80;48.40
8882;DHT22;4477;48.736;9.176;2022-08-06T14:54:01;29.30;49.30
8882;DHT22;4477;48.736;9.176;2022-08-06T14:56:30;29.80;51.20
8882;DHT22;4477;48.736;9.176;2022-08-06T14:58:57;30.20;45.00
8882;DHT22;4477;48.736;9.176;2022-08-06T15:01:24;29.90;44.40
8882;DHT22;4477;48.736;9.176;2022-08-06T15:03:52;30.00;50.10
8882;DHT22;4477;48.736;9.176;2022-08-06T15:06:19;30.70;46.00
8882;DHT22;4477;48.736;9.176;2022-08-06T15:08:46;32.00;46.60
8882;DHT22;4477;48.736;9.176;2022-08-06T15:11:13;32.30;43.80
8882;DHT22;4477;48.736;9.176;2022-08-06T15:13:40;32.90;44.00
8882;DHT22;4477;48.736;9.176;2022-08-06T15:16:07;33.50;41.10
8882;DHT22;4477;48.736;9.176;2022-08-06T15:18:34;33.80;40.10
8882;DHT22;4477;48.736;9.176;2022-08-06T15:21:03;33.70;41.30
8882;DHT22;4477;48.736;9.176;2022-08-06T15:23:30;32.90;43.90
8882;DHT22;4477;48.736;9.176;2022-08-06T15:25:57;31.90;40.60
8882;DHT22;4477;48.736;9.176;2022-08-06T15:28:24;31.50;41.30
8882;DHT22;4477;48.736;9.176;2022-08-06T15:30:52;32.00;43.80
8882;DHT22;4477;48.736;9.176;2022-08-06T15:33:19;33.00;41.00
8882;DHT22;4477;48.736;9.176;2022-08-06T15:35:45;32.50;40.00
8882;DHT22;4477;48.736;9.176;2022-08-06T15:38:14;32.20;39.80
8882;DHT22;4477;48.736;9.176;2022-08-06T15:40:41;32.70;39.50
8882;DHT22;4477;48.736;9.176;2022-08-06T15:43:07;33.10;39.20
8882;DHT22;4477;48.736;9.176;2022-08-06T15:45:34;33.70;40.10
8882;DHT22;4477;48.736;9.176;2022-08-06T15:48:01;34.00;37.70
8882;DHT22;4477;48.736;9.176;2022-08-06T15:50:30;34.20;37.60
8882;DHT22;4477;48.736;9.176;2022-08-06T15:52:57;34.00;37.40
8882;DHT22;4477;48.736;9.176;2022-08-06T15:55:25;33.40;37.70
8882;DHT22;4477;48.736;9.176;2022-08-06T15:57:52;33.50;37.70
8882;DHT22;4477;48.736;9.176;2022-08-06T16:00:19;32.90;36.90
8882;DHT22;4477;48.736;9.176;2022-08-06T16:02:46;31.90;42.40
8882;DHT22;4477;48.736;9.176;2022-08-06T16:05:14;30.70;42.60
8882;DHT22;4477;48.736;9.176;2022-08-06T16:07:40;29.40;43.10
8882;DHT22;4477;48.736;9.176;2022-08-06T16:10:08;28.50;45.50
8882;DHT22;4477;48.736;9.176;2022-08-06T16:12:37;29.70;43.80
8882;DHT22;4477;48.736;9.176;2022-08-06T16:15:05;31.40;41.40
8882;DHT22;4477;48.736;9.176;2022-08-06T16:17:32;32.80;40.90
8882;DHT22;4477;48.736;9.176;2022-08-06T16:19:59;33.60;36.70
8882;DHT22;4477;48.736;9.176;2022-08-06T16:22:26;31.90;39.10
8882;DHT22;4477;48.736;9.176;2022-08-06T16:24:56;30.20;41.20